Map

Track Data

SID SEASON NUMBER BASIN SUBBASIN NAME ISO_TIME NATURE LAT LON WMO_WIND WMO_PRES WMO_AGENCY TRACK_TYPE DIST2LAND LANDFALL IFLAG USA_AGENCY USA_ATCF_ID USA_LAT USA_LON USA_RECORD USA_STATUS USA_WIND USA_PRES USA_SSHS USA_R34_NE USA_R34_SE USA_R34_SW USA_R34_NW USA_R50_NE USA_R50_SE USA_R50_SW USA_R50_NW USA_R64_NE USA_R64_SE USA_R64_SW USA_R64_NW USA_POCI USA_ROCI USA_RMW USA_EYE TOKYO_LAT TOKYO_LON TOKYO_GRADE TOKYO_WIND TOKYO_PRES TOKYO_R50_DIR TOKYO_R50_LONG TOKYO_R50_SHORT TOKYO_R30_DIR TOKYO_R30_LONG TOKYO_R30_SHORT TOKYO_LAND CMA_LAT CMA_LON CMA_CAT CMA_WIND CMA_PRES HKO_LAT HKO_LON HKO_CAT HKO_WIND HKO_PRES NEWDELHI_LAT NEWDELHI_LON NEWDELHI_GRADE NEWDELHI_WIND NEWDELHI_PRES NEWDELHI_CI NEWDELHI_DP NEWDELHI_POCI REUNION_LAT REUNION_LON REUNION_TYPE REUNION_WIND REUNION_PRES REUNION_TNUM REUNION_CI REUNION_RMW REUNION_R34_NE REUNION_R34_SE REUNION_R34_SW REUNION_R34_NW REUNION_R50_NE REUNION_R50_SE REUNION_R50_SW REUNION_R50_NW REUNION_R64_NE REUNION_R64_SE REUNION_R64_SW REUNION_R64_NW BOM_LAT BOM_LON BOM_TYPE BOM_WIND BOM_PRES BOM_TNUM BOM_CI BOM_RMW BOM_R34_NE BOM_R34_SE BOM_R34_SW BOM_R34_NW BOM_R50_NE BOM_R50_SE BOM_R50_SW BOM_R50_NW BOM_R64_NE BOM_R64_SE BOM_R64_SW BOM_R64_NW BOM_ROCI BOM_POCI BOM_EYE BOM_POS_METHOD BOM_PRES_METHOD NADI_LAT NADI_LON NADI_CAT NADI_WIND NADI_PRES WELLINGTON_LAT WELLINGTON_LON WELLINGTON_WIND WELLINGTON_PRES DS824_LAT DS824_LON DS824_STAGE DS824_WIND DS824_PRES TD9636_LAT TD9636_LON TD9636_STAGE TD9636_WIND TD9636_PRES TD9635_LAT TD9635_LON TD9635_WIND TD9635_PRES TD9635_ROCI NEUMANN_LAT NEUMANN_LON NEUMANN_CLASS NEUMANN_WIND NEUMANN_PRES MLC_LAT MLC_LON MLC_CLASS MLC_WIND MLC_PRES USA_GUST BOM_GUST BOM_GUST_PER REUNION_GUST REUNION_GUST_PER USA_SEAHGT USA_SEARAD_NE USA_SEARAD_SE USA_SEARAD_SW USA_SEARAD_NW STORM_SPEED STORM_DIR
1993298N11154 1993 82 WP MM IRA 1993-10-25 00:00:00 NR 11.0000 153.500 main 1561 1554 O_____________ jtwc_wp WP301993 11.0000 153.500 15 -1 8 276
1993298N11154 1993 82 WP MM IRA 1993-10-25 03:00:00 NR 11.0401 153.100 main 1554 1552 P_____________ WP301993 11.0401 153.100 15 -1 8 277
1993298N11154 1993 82 WP MM IRA 1993-10-25 06:00:00 NR 11.1000 152.700 main 1559 1556 O_____________ jtwc_wp WP301993 11.1000 152.700 15 -1 8 281
1993298N11154 1993 82 WP MM IRA 1993-10-25 09:00:00 NR 11.1924 152.300 main 1565 1563 P_____________ WP301993 11.1924 152.300 15 -1 8 284
1993298N11154 1993 82 WP MM IRA 1993-10-25 12:00:00 NR 11.3000 151.900 main 1572 1571 O_____________ jtwc_wp WP301993 11.3000 151.900 15 -1 8 285
1993298N11154 1993 82 WP MM IRA 1993-10-25 15:00:00 NR 11.3999 151.500 main 1579 1572 P_____________ WP301993 11.3999 151.500 15 -1 8 284
1993298N11154 1993 82 WP MM IRA 1993-10-25 18:00:00 NR 11.5000 151.100 main 1577 1572 O_____________ jtwc_wp WP301993 11.5000 151.100 15 -1 8 284
1993298N11154 1993 82 WP MM IRA 1993-10-25 21:00:00 NR 11.5999 150.700 main 1577 1572 P_____________ WP301993 11.5999 150.700 15 -1 8 284
1993298N11154 1993 82 WP MM IRA 1993-10-26 00:00:00 NR 11.7000 150.300 main 1579 1574 O_____________ jtwc_wp WP301993 11.7000 150.300 15 -1 8 284
1993298N11154 1993 82 WP MM IRA 1993-10-26 03:00:00 NR 11.7924 149.900 main 1581 1578 P_____________ WP301993 11.7924 149.900 15 -1 8 284
1993298N11154 1993 82 WP MM IRA 1993-10-26 06:00:00 NR 11.9000 149.500 main 1585 1584 O_____________ jtwc_wp WP301993 11.9000 149.500 15 -1 8 288
1993298N11154 1993 82 WP MM IRA 1993-10-26 09:00:00 NR 12.0424 149.100 main 1590 1590 P_____________ WP301993 12.0424 149.100 15 -1 8 291
1993298N11154 1993 82 WP MM IRA 1993-10-26 12:00:00 NR 12.2000 148.700 main 1608 1607 O_____________ jtwc_wp WP301993 12.2000 148.700 15 -1 8 292
1993298N11154 1993 82 WP MM IRA 1993-10-26 15:00:00 NR 12.3499 148.307 main 1616 1616 P_____________ WP301993 12.3499 148.307 15 -1 8 291
1993298N11154 1993 82 WP MM IRA 1993-10-26 18:00:00 NR 12.5000 147.900 main 1636 1636 O_____________ jtwc_wp WP301993 12.5000 147.900 15 -1 9 290
1993298N11154 1993 82 WP MM IRA 1993-10-26 21:00:00 NR 12.6499 147.465 main 1647 1647 P_____________ WP301993 12.6499 147.465 15 -1 9 289
1993298N11154 1993 82 WP MM IRA 1993-10-27 00:00:00 NR 12.8000 147.000 main 1669 1669 O_____________ jtwc_wp WP301993 12.8000 147.000 15 -1 10 289
1993298N11154 1993 82 WP MM IRA 1993-10-27 03:00:00 NR 12.9649 146.508 main 1691 1691 P_____________ WP301993 12.9649 146.508 15 -1 10 287
1993298N11154 1993 82 WP MM IRA 1993-10-27 06:00:00 NR 13.1000 146.000 main 1704 1704 O_____________ jtwc_wp WP301993 13.1000 146.000 15 -1 10 282
1993298N11154 1993 82 WP MM IRA 1993-10-27 09:00:00 NR 13.1722 145.530 main 1718 1696 P_____________ WP301993 13.1722 145.530 20 -1 7 258
1993298N11154 1993 82 WP MM IRA 1993-10-27 12:00:00 TS 12.9667 145.333 1006 tokyo main 1697 1686 OOO___________ jtwc_wp WP301993 13.2000 145.000 25 -1 12.5000 146.000 2 1006 0 0 0 12.5000 146.000 1 23 1006 8 246
1993298N11154 1993 82 WP MM IRA 1993-10-27 15:00:00 TS 12.8552 144.790 main 1692 1682 PPP___________ WP301993 13.2150 144.338 25 -1 12.4955 145.243 2 1005 0 0 12.4955 145.243 1 23 1005 12 261
1993298N11154 1993 82 WP MM IRA 1993-10-27 18:00:00 TS 12.7909 144.145 1004 tokyo main 1692 1692 OOOO__________ jtwc_wp WP301993 13.2000 143.600 25 -1 12.5000 144.500 2 1004 0 0 0 12.5000 144.500 1 23 1004 12.9000 144.200 TD 25 1005 13 266
1993298N11154 1993 82 WP MM IRA 1993-10-27 21:00:00 TS 12.7587 143.470 main 1704 1691 PPPP__________ WP301993 13.1498 142.857 27 -1 12.5271 143.772 2 1003 0 0 12.5271 143.772 1 26 1003 12.9031 143.485 TD 27 1002 14 270
1993298N11154 1993 82 WP MM IRA 1993-10-28 00:00:00 TS 12.7933 142.720 1002 tokyo main 1688 1669 OOOO__________ jtwc_wp WP301993 13.1000 142.100 30 -1 12.6000 143.000 2 1002 0 0 0 12.6000 143.000 1 29 1002 12.9000 142.800 TD 30 1000 15 274
1993298N11154 1993 82 WP MM IRA 1993-10-28 03:00:00 TS 12.8616 141.939 main 1671 1638 PPPP__________ WP301993 13.0848 141.350 30 -1 12.7348 142.130 2 1001 0 0 12.7348 142.130 1 33 1002 12.8919 142.145 TD 30 1000 16 276
1993298N11154 1993 82 WP MM IRA 1993-10-28 06:00:00 TS 12.9500 141.100 35 1000 tokyo main 1649 1582 OOOO__________ jtwc_wp WP301993 13.1000 140.600 30 -1 12.9000 141.200 3 35 1000 0 9 90 90 0 12.9000 141.200 2 38 1002 12.9000 141.400 TD 30 1000 17 276
1993298N11154 1993 82 WP MM IRA 1993-10-28 09:00:00 TS 13.0537 140.188 main 1584 1487 PPPP__________ WP301993 13.1348 139.850 32 -1 13.0650 140.235 3 35 998 0 9 115 115 13.0650 140.235 2 38 999 12.9502 140.430 TD 32 997 18 276
1993298N11154 1993 82 WP MM IRA 1993-10-28 12:00:00 TS 13.1500 139.275 35 996 tokyo main 1489 1403 OOOO__________ jtwc_wp WP301993 13.2000 139.100 35 0 13.2000 139.300 3 35 996 0 9 140 140 0 13.2000 139.300 2 38 996 13.0000 139.400 TS 35 995 17 275
1993298N11154 1993 82 WP MM IRA 1993-10-28 15:00:00 TS 13.2129 138.432 main 1392 1317 PPPP__________ WP301993 13.2924 138.335 37 0 13.2797 138.462 3 37 994 0 9 160 160 13.2797 138.462 2 38 996 12.9997 138.470 TS 37 992 16 274
1993298N11154 1993 82 WP MM IRA 1993-10-28 18:00:00 TS 13.2500 137.650 40 992 tokyo main 1319 1245 OOOO__________ jtwc_wp WP301993 13.4000 137.600 40 0 13.3000 137.700 3 40 992 0 9 180 180 0 13.3000 137.700 2 38 996 13.0000 137.600 TS 40 990 15 272
1993298N11154 1993 82 WP MM IRA 1993-10-28 21:00:00 TS 13.2604 136.913 main 1234 1170 PPPP__________ WP301993 13.4997 136.935 42 0 13.2497 136.977 3 42 991 0 9 215 215 13.2497 136.977 2 43 996 13.0423 136.763 TS 40 990 14 271
1993298N11154 1993 82 WP MM IRA 1993-10-29 00:00:00 TS 13.2750 136.225 45 990 tokyo main 1160 1096 OOOO__________ jtwc_wp WP301993 13.6000 136.300 45 0 13.2000 136.300 3 45 990 0 9 250 250 0 13.2000 136.300 3 48 996 13.1000 136.000 TS 40 990 13 273
1993298N11154 1993 82 WP MM IRA 1993-10-29 03:00:00 TS 13.3204 135.564 main 1096 1035 PPPP__________ WP301993 13.6923 135.650 42 0 13.2273 135.643 3 47 987 0 9 275 275 13.2273 135.643 3 48 990 13.1347 135.320 TS 40 990 13 276
1993298N11154 1993 82 WP MM IRA 1993-10-29 06:00:00 TS 13.4000 134.925 50 985 tokyo main 1025 965 OOOO__________ jtwc_wp WP301993 13.8000 135.000 40 0 13.3000 135.000 4 50 985 0 9 300 300 0 13.3000 135.000 3 48 985 13.2000 134.700 TS 40 990 13 279
1993298N11154 1993 82 WP MM IRA 1993-10-29 09:00:00 TS 13.5060 134.291 main 965 902 PPPP__________ WP301993 13.9423 134.350 42 0 13.3773 134.357 4 52 982 0 9 350 300 13.3773 134.357 3 53 982 13.3273 134.100 TS 42 987 13 281
1993298N11154 1993 82 WP MM IRA 1993-10-29 12:00:00 TS 13.6500 133.650 55 980 tokyo main 904 832 OOOO__________ jtwc_wp WP301993 14.1000 133.700 45 0 13.5000 133.700 4 55 980 9 50 50 7 400 300 0 13.5000 133.700 3 58 980 13.5000 133.500 TS 45 985 13 284
1993298N11154 1993 82 WP MM IRA 1993-10-29 15:00:00 TS 13.8298 132.992 main 832 763 PPPP__________ WP301993 14.2573 133.050 50 0 13.6847 133.022 4 57 977 9 55 55 7 400 300 13.6847 133.022 3 58 977 13.6923 132.872 TS 50 980 14 286
1993298N11154 1993 82 WP MM IRA 1993-10-29 18:00:00 TS 14.0250 132.300 60 975 tokyo main 763 697 OOOO__________ jtwc_wp WP301993 14.4000 132.400 55 0 13.9000 132.300 4 60 975 9 60 60 7 400 300 0 13.9000 132.300 3 58 975 13.9000 132.200 STS 55 975 15 285
1993298N11154 1993 82 WP MM IRA 1993-10-29 21:00:00 TS 14.2075 131.550 main 697 624 PPPP__________ WP301993 14.5073 131.750 60 0 14.1076 131.493 4 62 972 9 65 65 7 400 300 14.1076 131.493 3 58 972 14.1074 131.465 STS 55 975 15 284
1993298N11154 1993 82 WP MM IRA 1993-10-30 00:00:00 TS 14.3750 130.800 65 970 tokyo main 624 560 OOOO__________ jtwc_wp WP301993 14.6000 131.100 65 1 14.3000 130.700 5 65 970 9 70 70 7 400 300 0 14.3000 130.700 3 58 970 14.3000 130.700 STS 55 975 14 283
1993298N11154 1993 82 WP MM IRA 1993-10-30 03:00:00 TS 14.5255 130.093 main 560 509 PPPP__________ WP301993 14.6998 130.450 70 1 14.4648 130.005 5 67 967 9 75 75 7 412 300 14.4648 130.005 3 63 967 14.4726 129.913 STS 57 970 13 282
1993298N11154 1993 82 WP MM IRA 1993-10-30 06:00:00 TS 14.6500 129.450 70 965 tokyo main 515 462 OOOO__________ jtwc_wp WP301993 14.8000 129.800 75 1 14.6000 129.400 5 70 965 9 80 80 7 425 300 0 14.6000 129.400 4 68 965 14.6000 129.200 STS 60 965 12 280
1993298N11154 1993 82 WP MM IRA 1993-10-30 09:00:00 TS 14.7410 128.880 main 462 427 PPPP__________ WP301993 14.8999 129.135 80 1 14.7073 128.870 5 72 962 9 90 90 7 425 300 14.6998 128.870 4 72 965 14.6572 128.647 STS 65 960 11 280
1993298N11154 1993 82 WP MM IRA 1993-10-30 12:00:00 TS 14.8250 128.375 75 960 tokyo main 427 393 OOOO__________ jtwc_wp WP301993 15.0000 128.500 85 2 14.8000 128.400 5 75 960 9 100 100 7 425 300 0 14.8000 128.400 4 77 965 14.7000 128.200 T 70 955 10 281
1993298N11154 1993 82 WP MM IRA 1993-10-30 15:00:00 TS 14.9299 127.897 main 393 355 PPPP__________ WP301993 15.1074 127.920 90 2 14.8924 127.942 5 75 957 9 100 100 7 425 300 14.9499 127.943 4 77 960 14.7698 127.785 T 72 952 9 284
1993298N11154 1993 82 WP MM IRA 1993-10-30 18:00:00 TS 15.0500 127.450 75 955 tokyo main 359 315 OOOO__________ jtwc_wp WP301993 15.2000 127.400 95 2 15.0000 127.500 5 75 955 9 100 100 7 425 300 0 15.1000 127.500 4 77 955 14.9000 127.400 T 75 950 9 287
1993298N11154 1993 82 WP MM IRA 1993-10-30 21:00:00 TS 15.1949 127.005 main 315 283 PPPP__________ WP301993 15.2574 126.927 100 3 15.1500 127.043 5 77 952 9 110 110 7 425 300 15.2075 127.042 4 82 952 15.1649 127.008 T 77 947 9 288
1993298N11154 1993 82 WP MM IRA 1993-10-31 00:00:00 TS 15.3250 126.575 80 950 tokyo main 283 256 OOOO__________ jtwc_wp WP301993 15.3000 126.500 105 3 15.3000 126.600 5 80 950 9 120 120 7 425 300 0 15.3000 126.600 5 87 950 15.4000 126.600 T 80 945 8 284
1993298N11154 1993 82 WP MM IRA 1993-10-31 03:00:00 TS 15.3949 126.151 main 256 224 PPPP__________ WP301993 15.3423 126.100 110 3 15.4074 126.185 5 80 950 9 120 120 7 425 300 15.3999 126.185 5 87 950 15.4301 126.135 T 85 942 8 279
1993298N11154 1993 82 WP MM IRA 1993-10-31 06:00:00 TS 15.4500 125.750 80 950 tokyo main 232 205 OOOO__________ jtwc_wp WP301993 15.4000 125.700 115 4 15.5000 125.800 5 80 950 9 120 120 7 425 300 0 15.5000 125.800 5 87 950 15.4000 125.700 ST 90 940 8 280
1993298N11154 1993 82 WP MM IRA 1993-10-31 09:00:00 TS 15.5318 125.372 main 205 194 PPPP__________ WP301993 15.5000 125.250 117 4 15.5999 125.435 5 80 950 9 120 120 7 462 300 15.5999 125.435 5 87 950 15.4274 125.370 ST 85 942 7 284
1993298N11154 1993 82 WP MM IRA 1993-10-31 12:00:00 TS 15.6250 125.025 80 950 tokyo main 194 194 OOOO__________ jtwc_wp WP301993 15.6000 124.800 120 4 15.7000 125.100 5 80 950 9 120 120 8 500 300 0 15.7000 125.100 5 87 950 15.5000 125.100 T 80 945 7 287
1993298N11154 1993 82 WP MM IRA 1993-10-31 15:00:00 TS 15.7267 124.727 main 195 195 PPPP__________ WP301993 15.6498 124.407 120 4 15.8073 124.815 5 80 950 9 120 120 8 500 300 15.8073 124.815 5 87 950 15.6423 124.872 T 80 945 6 288
1993298N11154 1993 82 WP MM IRA 1993-10-31 18:00:00 TS 15.8250 124.400 80 950 tokyo main 201 195 OOOO__________ jtwc_wp WP301993 15.7000 124.000 120 4 15.9000 124.500 5 80 950 9 120 120 8 500 300 0 15.9000 124.500 5 87 950 15.8000 124.600 T 80 945 7 284
1993298N11154 1993 82 WP MM IRA 1993-10-31 21:00:00 TS 15.9055 123.984 main 195 140 PPPP__________ WP301993 15.7925 123.515 115 4 15.9573 124.102 5 77 952 9 110 110 8 500 300 15.9573 124.102 5 87 952 15.9148 124.217 T 80 945 9 280
1993298N11154 1993 82 WP MM IRA 1993-11-01 00:00:00 TS 15.9750 123.475 75 955 tokyo main 140 78 OOOO__________ jtwc_wp WP301993 15.9000 123.000 110 3 16.0000 123.600 5 75 955 9 100 100 8 500 300 0 16.0000 123.600 5 87 955 16.0000 123.700 T 80 945 11 277
1993298N11154 1993 82 WP MM IRA 1993-11-01 03:00:00 TS 16.0431 122.874 main 78 15 PPPP__________ WP301993 15.9999 122.500 107 3 16.0500 122.980 5 72 957 9 90 90 8 487 270 16.0500 122.980 5 87 957 16.0726 123.038 T 80 945 12 276
1993298N11154 1993 82 WP MM IRA 1993-11-01 06:00:00 TS 16.1000 122.225 70 960 tokyo main 10 0 OOOO__________ jtwc_wp WP301993 16.1000 122.000 105 3 16.1000 122.300 5 70 960 9 80 80 8 475 240 0 16.1000 122.300 5 87 960 16.1000 122.300 T 80 945 12 274
1993298N11154 1993 82 WP MM IRA 1993-11-01 09:00:00 TS 16.1375 121.581 main 0 0 PPPP__________ WP301993 16.1999 121.500 95 2 16.1500 121.628 5 65 967 9 70 70 8 437 220 16.1500 121.628 5 82 967 16.0500 121.570 T 70 955 12 274
1993298N11154 1993 82 WP MM IRA 1993-11-01 12:00:00 TS 16.1750 120.975 60 975 tokyo main 0 0 OOOO__________ jtwc_wp WP301993 16.3000 121.000 85 2 16.2000 121.000 4 60 975 9 60 60 8 400 200 0 16.2000 121.000 4 77 975 16.0000 120.900 STS 60 965 11 274
1993298N11154 1993 82 WP MM IRA 1993-11-01 15:00:00 TS 16.2148 120.443 main 0 0 PPPP__________ WP301993 16.3924 120.500 75 1 16.2348 120.462 4 57 980 9 55 55 8 387 190 16.2348 120.462 4 72 980 15.9973 120.347 STS 50 975 10 277
1993298N11154 1993 82 WP MM IRA 1993-11-01 18:00:00 TS 16.3000 119.975 55 985 tokyo main 10 0 OOOO__________ jtwc_wp WP301993 16.5000 120.000 65 1 16.3000 120.000 4 55 985 9 50 50 8 375 180 0 16.3000 120.000 4 68 985 16.1000 119.900 TS 40 985 9 287
1993298N11154 1993 82 WP MM IRA 1993-11-01 21:00:00 TS 16.4723 119.557 main 30 30 PPPP__________ WP301993 16.6424 119.493 62 0 16.4348 119.592 4 55 985 9 50 50 8 347 180 16.4348 119.592 4 63 985 16.3772 119.550 TS 37 990 9 295
1993298N11154 1993 82 WP MM IRA 1993-11-02 00:00:00 TS 16.6750 119.150 55 985 tokyo main 78 78 OOOO__________ jtwc_wp WP301993 16.8000 119.000 60 0 16.6000 119.200 4 55 985 9 50 50 8 320 180 0 16.6000 119.200 3 58 985 16.7000 119.200 TS 35 995 9 294
1993298N11154 1993 82 WP MM IRA 1993-11-02 03:00:00 TS 16.8449 118.701 main 129 129 PPPP__________ WP301993 16.9499 118.535 60 0 16.7498 118.772 4 55 985 9 40 40 8 295 205 16.7498 118.772 3 53 985 16.9300 118.722 TS 32 997 9 290
1993298N11154 1993 82 WP MM IRA 1993-11-02 06:00:00 TS 17.0000 118.225 55 985 tokyo main 187 187 OOOO__________ jtwc_wp WP301993 17.1000 118.100 60 0 16.9000 118.300 4 55 985 9 30 30 8 270 230 0 16.9000 118.300 3 48 985 17.1000 118.200 TD 30 1000 10 288
1993298N11154 1993 82 WP MM IRA 1993-11-02 09:00:00 TS 17.1412 117.723 main 240 240 PPPP__________ WP301993 17.2499 117.692 60 0 17.0500 117.765 4 55 985 9 30 30 8 270 230 17.0501 117.743 3 48 985 17.2149 117.692 TD 30 1000 10 286
1993298N11154 1993 82 WP MM IRA 1993-11-02 12:00:00 TS 17.2750 117.225 55 985 tokyo main 298 298 OOOO__________ jtwc_wp WP301993 17.4000 117.300 60 0 17.2000 117.200 4 55 985 9 30 30 8 270 230 0 17.2000 117.200 3 48 985 17.3000 117.200 TD 30 1000 10 286
1993298N11154 1993 82 WP MM IRA 1993-11-02 15:00:00 TS 17.4087 116.752 main 342 342 PPPP__________ WP301993 17.5425 116.892 57 0 17.3501 116.620 4 52 987 9 8 270 230 17.3498 116.762 3 48 987 17.3924 116.735 TD 30 1000 9 288
1993298N11154 1993 82 WP MM IRA 1993-11-02 18:00:00 TS 17.5500 116.325 50 990 tokyo main 399 395 OOOO__________ jtwc_wp WP301993 17.7000 116.500 55 0 17.5000 116.100 4 50 990 0 8 270 230 0 17.5000 116.400 3 48 990 17.5000 116.300 TD 30 1000 8 291
1993298N11154 1993 82 WP MM IRA 1993-11-02 21:00:00 TS 17.7030 115.962 main 433 433 PPPP__________ WP301993 17.8924 116.150 55 0 17.6423 115.712 4 50 990 0 8 285 215 17.6423 116.100 3 48 990 17.6349 115.885 TD 30 1000 7 296
1993298N11154 1993 82 WP MM IRA 1993-11-03 00:00:00 TS 17.8750 115.625 50 990 tokyo main 481 481 OOOO__________ jtwc_wp WP301993 18.1000 115.800 55 0 17.8000 115.400 4 50 990 0 7 300 200 0 17.8000 115.800 3 48 990 17.8000 115.500 TD 30 1000 8 298
1993298N11154 1993 82 WP MM IRA 1993-11-03 03:00:00 TS 18.0618 115.262 main 481 435 PPPP__________ WP301993 18.2925 115.400 55 0 17.9774 115.092 4 50 990 0 7 300 200 17.9850 115.415 3 48 990 17.9924 115.142 TD 32 997 8 300
1993298N11154 1993 82 WP MM IRA 1993-11-03 06:00:00 TS 18.2750 114.900 50 990 tokyo main 435 397 OOOO__________ jtwc_wp WP301993 18.5000 115.000 55 0 18.2000 114.800 4 50 990 0 7 300 200 0 18.2000 115.000 3 48 990 18.2000 114.800 TS 35 995 8 304
1993298N11154 1993 82 WP MM IRA 1993-11-03 09:00:00 TS 18.5137 114.544 main 387 347 PPPP__________ WP301993 18.7424 114.635 55 0 18.4925 114.500 4 50 990 0 7 300 200 18.4350 114.592 3 48 990 18.3849 114.450 TS 35 995 8 307
1993298N11154 1993 82 WP MM IRA 1993-11-03 12:00:00 TS 18.7750 114.200 50 990 tokyo main 347 311 OOOO__________ jtwc_wp WP301993 19.0000 114.300 55 0 18.8000 114.200 4 50 990 0 7 300 200 0 18.7000 114.200 3 48 990 18.6000 114.100 TS 35 995 8 309
1993298N11154 1993 82 WP MM IRA 1993-11-03 15:00:00 TS 19.0406 113.867 main 311 274 PPPP__________ WP301993 19.2499 114.000 52 0 19.0499 113.907 4 50 990 0 7 275 175 18.9850 113.827 3 48 990 18.8775 113.735 TS 35 992 8 312
1993298N11154 1993 82 WP MM IRA 1993-11-03 18:00:00 TS 19.3250 113.550 50 990 tokyo main 274 240 OOOO__________ jtwc_wp WP301993 19.5000 113.700 50 0 19.3000 113.600 4 50 990 0 7 250 150 0 19.3000 113.500 3 48 990 19.2000 113.400 TS 35 990 8 315
1993298N11154 1993 82 WP MM IRA 1993-11-03 21:00:00 TS 19.6299 113.250 main 230 211 PPPP__________ WP301993 19.7425 113.357 47 0 19.5850 113.257 4 47 991 0 7 215 150 19.6498 113.250 3 48 991 19.5424 113.135 TS 35 992 8 318
1993298N11154 1993 82 WP MM IRA 1993-11-04 00:00:00 TS 19.9500 112.950 45 992 tokyo main 203 170 OOOO__________ jtwc_wp WP301993 20.0000 113.000 45 0 19.9000 112.900 3 45 992 0 8 180 150 0 20.0000 113.000 3 48 992 19.9000 112.900 TS 35 995 9 317
1993298N11154 1993 82 WP MM IRA 1993-11-04 03:00:00 TS 20.2675 112.619 main 159 123 PPPP__________ WP301993 20.2849 112.650 45 0 20.2424 112.550 3 42 994 0 8 170 155 20.2927 112.635 3 48 992 20.2500 112.642 TS 35 995 9 317
1993298N11154 1993 82 WP MM IRA 1993-11-04 06:00:00 TS 20.6000 112.300 40 996 tokyo main 123 78 OOOO__________ jtwc_wp WP301993 20.6000 112.300 45 0 20.6000 112.200 3 40 996 0 9 160 160 0 20.6000 112.300 3 48 992 20.6000 112.400 TS 35 995 9 321
1993298N11154 1993 82 WP MM IRA 1993-11-04 09:00:00 TS 20.9549 112.026 main 69 30 PPPP__________ WP301993 20.9425 111.928 42 0 20.9500 111.835 3 37 998 0 9 155 155 20.9774 112.120 3 48 992 20.9498 112.222 TS 32 997 9 325
1993298N11154 1993 82 WP MM IRA 1993-11-04 12:00:00 TS 21.3267 111.760 35 1000 tokyo main 30 0 OOOO__________ jtwc_wp WP301993 21.3000 111.600 40 0 21.3000 111.500 3 35 1000 0 9 150 150 0 21.4000 112.000 3 48 992 21.3000 112.000 TD 30 1000 9 328
1993298N11154 1993 82 WP MM IRA 1993-11-04 15:00:00 TS 21.7307 111.512 main 0 0 PPPP__________ WP301993 21.6724 111.355 37 0 21.6274 111.235 3 1002 0 9 21.9324 111.880 3 43 993 21.6504 111.643 TD 27 1000 9 330
1993298N11154 1993 82 WP MM IRA 1993-11-04 18:00:00 TS 22.0900 111.290 1004 tokyo main 0 0 OOOO__________ jtwc_wp WP301993 22.0000 111.200 35 0 22.0000 111.000 2 1004 0 0 0 22.3000 111.700 2 38 995 22.0000 111.200 TD 25 1000 7 327
1993298N11154 1993 82 WP MM IRA 1993-11-04 21:00:00 TS 22.3243 111.091 main 0 0 PPP___________ WP301993 22.2300 111.127 30 -1 22.4701 110.756 2 1006 0 0 22.2728 111.389 2 30 999 TD 5 314
1993298N11154 1993 82 WP MM IRA 1993-11-05 00:00:00 TS 22.4667 110.867 1008 tokyo main 0 OOO___________ jtwc_wp WP301993 22.4000 111.100 25 -1 23.0000 110.500 2 1008 0 0 0 22.0000 111.000 1 23 1004 5 305

Digital Typhoon Data and Search

About IBTrACS Database

This database is a web-friendly format of International Best Track Archive for Climate Stewardship (IBTrACS), a global best track data archive curated by NOAA dating back to 1842.

Updated: 2021-10-08